DAAJ/DJG METAR and TAF weather

Enter ICAO airport designator
Station Type Date Time Source
DAAJ METAR 2019/12/14 11:00 UTC NOAA

DAAJ 141100Z 13004KT CAVOK 18/M14 Q1023


Station Type Date Time Source
DAAJ Decoded METAR 2019/12/14 11:00 UTC NOAA

Djanet, Algeria (DAAJ) 24-33N 009-28E 1054M
Dec 14, 2019 - 06:00 AM EST / 2019.12.14 1100 UTC
Wind: from the SE (130 degrees) at 5 MPH (4 KT):0
Visibility: greater than 7 mile(s):0
Temperature: 64 F (18 C)
Dew Point: 6 F (-14 C)
Relative Humidity: 10%
Pressure (altimeter): 30.21 in. Hg (1023 hPa)
ob: DAAJ 141100Z 13004KT CAVOK 18/M14 Q1023
cycle: 11

Station Type Date Time Source
DAAJ TAF 2019/12/14 06:33 UTC NOAA

TAF DAAJ 140500Z 1406/1506 03006KT CAVOK
TEMPO 1413/1417 20010KT

Example: see airport list